createdAt,value
2023-12-16T00:00:13.543Z,15.95
2023-12-16T00:02:39.960Z,19.70
2023-12-16T00:05:06.782Z,17.73
2023-12-16T00:07:33.243Z,17.27
2023-12-16T00:09:59.699Z,21.50
2023-12-16T00:12:26.625Z,16.52
2023-12-16T00:14:53.285Z,17.50
2023-12-16T00:17:19.807Z,17.90
2023-12-16T00:19:46.619Z,18.08
2023-12-16T00:22:13.204Z,19.05
2023-12-16T00:24:39.642Z,21.95
2023-12-16T00:27:06.089Z,18.70
2023-12-16T00:29:32.497Z,19.60
2023-12-16T00:31:58.937Z,17.48
2023-12-16T00:34:25.435Z,20.63
2023-12-16T00:36:51.910Z,17.95
2023-12-16T00:39:18.676Z,18.23
2023-12-16T00:41:45.053Z,19.23
2023-12-16T00:44:11.480Z,17.40
2023-12-16T00:46:37.897Z,19.85
2023-12-16T00:49:04.471Z,17.25
2023-12-16T00:51:30.967Z,21.92
2023-12-16T00:53:57.436Z,19.02
2023-12-16T00:56:24.368Z,20.02
2023-12-16T00:58:50.916Z,18.30
2023-12-16T01:01:17.424Z,15.50
2023-12-16T01:03:44.021Z,17.15
2023-12-16T01:06:10.587Z,18.10
2023-12-16T01:08:37.057Z,17.75
2023-12-16T01:11:03.941Z,18.15
2023-12-16T01:13:30.404Z,21.23
2023-12-16T01:15:56.929Z,17.48
2023-12-16T01:18:25.185Z,16.70
2023-12-16T01:20:52.223Z,21.50
2023-12-16T01:23:18.643Z,17.70
2023-12-16T01:25:45.101Z,17.75
2023-12-16T01:28:11.794Z,18.23
2023-12-16T01:30:38.745Z,19.10
2023-12-16T01:33:05.376Z,19.33
2023-12-16T01:35:31.834Z,18.00
2023-12-16T01:37:58.283Z,20.45
2023-12-16T01:40:24.781Z,19.52
2023-12-16T01:42:51.275Z,16.42
2023-12-16T01:45:20.363Z,19.30
2023-12-16T01:47:47.548Z,17.98
2023-12-16T01:50:14.430Z,17.15
2023-12-16T01:52:42.405Z,19.55
2023-12-16T01:55:10.513Z,18.38
2023-12-16T01:57:37.577Z,18.40
2023-12-16T02:00:05.069Z,20.80
2023-12-16T02:02:32.814Z,16.73
2023-12-16T02:04:59.552Z,17.70
2023-12-16T02:07:26.028Z,20.13
2023-12-16T02:09:52.822Z,19.33
2023-12-16T02:12:23.817Z,20.58
2023-12-16T02:14:50.379Z,19.00
2023-12-16T02:17:16.821Z,20.77
2023-12-16T02:19:43.604Z,16.85
2023-12-16T02:22:10.122Z,20.67
2023-12-16T02:24:38.813Z,19.17
2023-12-16T02:27:05.449Z,20.05
2023-12-16T02:29:31.902Z,19.25
2023-12-16T02:31:58.364Z,19.17
2023-12-16T02:34:25.246Z,16.80
2023-12-16T02:36:51.834Z,18.35
2023-12-16T02:39:18.283Z,19.23
2023-12-16T02:41:44.702Z,16.77
2023-12-16T02:44:11.116Z,19.25
2023-12-16T02:46:37.498Z,19.48
2023-12-16T02:49:03.982Z,17.92
2023-12-16T02:51:31.143Z,16.40
2023-12-16T02:53:57.619Z,18.00
2023-12-16T02:56:24.160Z,17.90
2023-12-16T02:58:51.131Z,22.58
2023-12-16T03:01:17.677Z,20.67
2023-12-16T03:03:44.217Z,18.13
2023-12-16T03:06:10.675Z,18.92
2023-12-16T03:08:37.284Z,21.98
2023-12-16T03:11:04.348Z,21.38
2023-12-16T03:13:31.220Z,19.08
2023-12-16T03:15:58.790Z,19.80
2023-12-16T03:18:25.388Z,22.58
2023-12-16T03:20:52.026Z,21.00
2023-12-16T03:23:18.670Z,17.75
2023-12-16T03:25:45.575Z,22.90
2023-12-16T03:28:12.401Z,17.85
2023-12-16T03:30:40.096Z,18.58
2023-12-16T03:33:06.703Z,16.88
2023-12-16T03:35:33.128Z,20.52
2023-12-16T03:38:01.482Z,19.17
2023-12-16T03:40:28.305Z,16.77
2023-12-16T03:42:55.152Z,17.98
2023-12-16T03:45:21.633Z,17.20
2023-12-16T03:47:48.081Z,16.63
2023-12-16T03:50:14.575Z,18.75
2023-12-16T03:52:40.978Z,17.55
2023-12-16T03:55:07.764Z,15.55
2023-12-16T03:57:35.046Z,21.67
2023-12-16T04:00:01.647Z,19.50
2023-12-16T04:02:28.131Z,17.23
2023-12-16T04:04:54.603Z,18.63
2023-12-16T04:07:21.055Z,18.02
2023-12-16T04:09:47.679Z,16.48
2023-12-16T04:12:14.372Z,12.65
2023-12-16T04:14:40.863Z,19.80
2023-12-16T04:17:07.442Z,14.07
2023-12-16T04:19:34.083Z,15.65
2023-12-16T04:22:00.501Z,18.48
2023-12-16T04:24:26.872Z,15.20
2023-12-16T04:26:53.285Z,20.90
2023-12-16T04:29:19.752Z,15.35
2023-12-16T04:31:46.397Z,15.48
2023-12-16T04:34:12.919Z,17.75
2023-12-16T04:36:39.368Z,14.10
2023-12-16T04:39:08.933Z,13.27
2023-12-16T04:41:35.372Z,19.50
2023-12-16T04:44:01.809Z,16.13
2023-12-16T04:46:28.296Z,16.63
2023-12-16T04:48:55.528Z,16.48
2023-12-16T04:51:22.013Z,15.05
2023-12-16T04:53:48.656Z,12.65
2023-12-16T04:56:15.162Z,16.13
2023-12-16T04:58:41.666Z,15.77
2023-12-16T05:01:08.291Z,14.52
2023-12-16T05:03:35.233Z,13.75
2023-12-16T05:06:01.865Z,14.55
2023-12-16T05:08:28.415Z,13.07
2023-12-16T05:10:54.843Z,18.17
2023-12-16T05:13:21.471Z,15.65
2023-12-16T05:15:48.033Z,13.00
2023-12-16T05:18:14.615Z,11.02
2023-12-16T05:20:41.336Z,16.85
2023-12-16T05:23:07.765Z,12.45
2023-12-16T05:25:34.216Z,12.75
2023-12-16T05:28:00.740Z,12.63
2023-12-16T05:30:27.260Z,15.02
2023-12-16T05:32:53.824Z,14.40
2023-12-16T05:35:21.210Z,12.50
2023-12-16T05:37:48.470Z,15.40
2023-12-16T05:40:15.189Z,16.42
2023-12-16T05:42:41.829Z,13.48
2023-12-16T05:45:08.864Z,16.67
2023-12-16T05:47:35.601Z,12.27
2023-12-16T05:50:03.612Z,11.82
2023-12-16T05:52:30.376Z,11.30
2023-12-16T05:54:56.913Z,13.95
2023-12-16T05:57:23.560Z,13.25
2023-12-16T05:59:49.985Z,11.25
2023-12-16T06:02:16.405Z,11.32
2023-12-16T06:04:43.793Z,12.75
2023-12-16T06:07:10.264Z,11.60
2023-12-16T06:09:36.847Z,12.65
2023-12-16T06:12:04.094Z,12.38
2023-12-16T06:14:30.974Z,8.95
2023-12-16T06:16:57.507Z,11.13
2023-12-16T06:19:27.599Z,12.10
2023-12-16T06:21:54.594Z,10.55
2023-12-16T06:24:20.992Z,12.48
2023-12-16T06:26:48.446Z,10.60
2023-12-16T06:29:14.864Z,13.35
2023-12-16T06:31:41.390Z,10.32
2023-12-16T06:34:08.003Z,12.73
2023-12-16T06:36:34.485Z,9.57
2023-12-16T06:39:00.981Z,12.25
2023-12-16T06:41:30.472Z,12.10
2023-12-16T06:43:57.093Z,10.43
2023-12-16T06:46:24.962Z,12.10
2023-12-16T06:48:51.812Z,10.02
2023-12-16T06:51:18.898Z,11.20
2023-12-16T06:53:45.371Z,12.35
2023-12-16T06:56:11.927Z,10.25
2023-12-16T06:58:38.515Z,9.18
2023-12-16T07:01:05.208Z,13.23
2023-12-16T07:03:31.800Z,11.38
2023-12-16T07:05:59.220Z,6.80
2023-12-16T07:08:25.717Z,11.25
2023-12-16T07:10:52.137Z,10.85
2023-12-16T07:13:18.620Z,8.55
2023-12-16T07:15:45.146Z,10.57
2023-12-16T07:18:11.690Z,11.63
2023-12-16T07:20:38.115Z,9.15
2023-12-16T07:23:05.939Z,8.73
2023-12-16T07:25:32.697Z,9.40
2023-12-16T07:27:59.206Z,10.73
2023-12-16T07:30:25.789Z,10.82
2023-12-16T07:32:56.035Z,10.85
2023-12-16T07:35:22.594Z,13.32
2023-12-16T07:37:49.270Z,9.52
2023-12-16T07:40:17.759Z,9.32
2023-12-16T07:42:47.627Z,11.15
2023-12-16T07:45:14.246Z,12.40
2023-12-16T07:47:41.158Z,10.13
2023-12-16T07:50:08.517Z,12.80
2023-12-16T07:52:35.171Z,10.48
2023-12-16T07:55:03.555Z,10.82
2023-12-16T07:57:33.121Z,11.23
2023-12-16T07:59:59.659Z,9.27
2023-12-16T08:02:41.466Z,9.60
2023-12-16T08:05:09.220Z,9.80
2023-12-16T08:07:36.131Z,10.80
2023-12-16T08:10:03.456Z,9.88
2023-12-16T08:12:30.338Z,9.90
2023-12-16T08:14:56.783Z,12.95
2023-12-16T08:17:23.329Z,11.45
2023-12-16T08:19:50.000Z,10.73
2023-12-16T08:22:16.673Z,7.78
2023-12-16T08:24:43.279Z,11.75
2023-12-16T08:27:09.758Z,10.65
2023-12-16T08:29:36.229Z,10.05
2023-12-16T08:34:46.530Z,10.00
2023-12-16T08:37:13.328Z,11.55
2023-12-16T08:39:46.417Z,10.18
2023-12-16T08:42:24.026Z,12.68
2023-12-16T08:44:50.591Z,8.77
2023-12-16T08:47:18.447Z,11.73
2023-12-16T08:49:48.256Z,9.48
2023-12-16T08:52:15.188Z,11.43
2023-12-16T08:55:03.385Z,12.55
2023-12-16T08:57:30.494Z,12.80
2023-12-16T08:59:57.081Z,10.73
2023-12-16T09:02:29.874Z,11.40
2023-12-16T09:04:59.735Z,11.27
2023-12-16T09:07:26.433Z,11.02
2023-12-16T09:09:53.002Z,12.50
2023-12-16T09:12:19.698Z,10.57
2023-12-16T09:14:46.168Z,11.38
2023-12-16T09:17:13.649Z,11.30
2023-12-16T09:19:41.260Z,10.35
2023-12-16T09:22:14.211Z,14.05
2023-12-16T09:24:49.917Z,9.60
2023-12-16T09:27:16.490Z,11.45
2023-12-16T09:29:42.952Z,12.25
2023-12-16T09:32:15.508Z,13.82
2023-12-16T09:34:43.609Z,11.70
2023-12-16T09:37:11.229Z,10.98
2023-12-16T09:39:37.790Z,11.20
2023-12-16T09:42:04.552Z,12.95
2023-12-16T09:44:35.276Z,10.73
2023-12-16T09:47:05.097Z,14.88
2023-12-16T09:49:32.316Z,12.05
2023-12-16T09:51:58.983Z,12.73
2023-12-16T09:54:25.536Z,12.90
2023-12-16T09:56:52.424Z,12.55
2023-12-16T09:59:19.334Z,11.95
2023-12-16T10:01:54.361Z,11.95
2023-12-16T10:04:22.335Z,13.25
2023-12-16T10:06:49.303Z,12.68
2023-12-16T10:09:15.751Z,15.15
2023-12-16T10:11:43.561Z,13.48
2023-12-16T10:14:12.774Z,14.30
2023-12-16T10:19:07.178Z,15.50
2023-12-16T10:21:33.874Z,17.42
2023-12-16T10:24:01.184Z,13.82
2023-12-16T10:26:31.593Z,14.25
2023-12-16T10:31:26.356Z,14.63
2023-12-16T10:33:53.040Z,15.15
2023-12-16T10:36:24.812Z,13.93
2023-12-16T10:39:10.749Z,14.73
2023-12-16T10:41:37.876Z,13.73
2023-12-16T10:44:07.723Z,12.18
2023-12-16T10:46:36.784Z,12.80
2023-12-16T10:49:05.417Z,12.93
2023-12-16T10:51:33.389Z,13.52
2023-12-16T10:54:02.898Z,14.23
2023-12-16T10:56:30.265Z,12.20
2023-12-16T10:59:03.056Z,11.00
2023-12-16T11:01:31.109Z,12.07
2023-12-16T11:04:07.284Z,10.77
2023-12-16T11:06:45.356Z,11.02
2023-12-16T11:09:12.763Z,11.05
2023-12-16T11:11:41.015Z,11.20
2023-12-16T11:14:07.761Z,11.35
2023-12-16T11:16:54.145Z,11.52
2023-12-16T11:19:26.760Z,10.88
2023-12-16T11:21:55.450Z,11.75
2023-12-16T11:24:22.246Z,12.70
2023-12-16T11:26:53.476Z,12.57
2023-12-16T11:29:31.833Z,12.15
2023-12-16T11:32:02.041Z,12.25
2023-12-16T11:34:46.211Z,12.27
2023-12-16T11:37:13.292Z,13.00
2023-12-16T11:39:49.300Z,11.93
2023-12-16T11:42:39.297Z,14.23
2023-12-16T11:45:07.132Z,12.15
2023-12-16T11:47:34.735Z,15.07
2023-12-16T11:50:02.234Z,12.68
2023-12-16T11:52:29.173Z,14.80
2023-12-16T11:54:57.512Z,12.13
2023-12-16T11:57:27.728Z,12.02
2023-12-16T12:00:00.943Z,11.55
2023-12-16T12:02:27.661Z,12.75
2023-12-16T12:04:55.863Z,12.55
2023-12-16T12:07:22.431Z,12.27
2023-12-16T12:09:48.933Z,11.90
2023-12-16T12:12:15.566Z,12.15
2023-12-16T12:14:48.623Z,12.13
2023-12-16T12:17:15.604Z,12.60
2023-12-16T12:19:44.820Z,12.63
2023-12-16T12:22:11.696Z,14.73
2023-12-16T12:24:38.178Z,13.10
2023-12-16T12:27:09.921Z,11.90
2023-12-16T12:29:55.134Z,11.90
2023-12-16T12:32:22.172Z,12.52
2023-12-16T12:35:05.187Z,12.07
2023-12-16T12:37:44.721Z,14.07
2023-12-16T12:40:14.614Z,12.45
2023-12-16T12:45:08.165Z,13.45
2023-12-16T12:47:34.661Z,13.25
2023-12-16T12:50:01.124Z,14.25
2023-12-16T12:53:17.038Z,13.77
2023-12-16T12:55:24.168Z,12.50
2023-12-16T12:57:51.507Z,14.13
2023-12-16T13:00:19.133Z,13.75
2023-12-16T13:02:45.509Z,14.27
2023-12-16T13:05:11.975Z,14.32
2023-12-16T13:07:38.664Z,14.00
2023-12-16T13:10:07.887Z,17.48
2023-12-16T13:12:34.353Z,15.25
2023-12-16T13:15:02.574Z,16.65
2023-12-16T13:17:29.299Z,15.55
2023-12-16T13:19:55.896Z,15.18
2023-12-16T13:22:22.381Z,14.85
2023-12-16T13:24:52.059Z,15.38
2023-12-16T13:27:19.348Z,16.67
2023-12-16T13:29:45.776Z,15.70
2023-12-16T13:32:12.231Z,14.88
2023-12-16T13:34:41.334Z,15.45
2023-12-16T13:37:07.902Z,14.30
2023-12-16T13:39:34.362Z,14.48
2023-12-16T13:42:00.770Z,13.60
2023-12-16T13:44:27.234Z,14.35
2023-12-16T13:46:53.655Z,13.15
2023-12-16T13:49:20.256Z,12.70
2023-12-16T13:51:46.732Z,12.20
2023-12-16T13:54:16.088Z,12.50
2023-12-16T13:56:42.718Z,12.70
2023-12-16T13:59:10.245Z,12.43
2023-12-16T14:01:36.682Z,12.35
2023-12-16T14:04:04.721Z,12.20
2023-12-16T14:06:31.186Z,11.55
2023-12-16T14:08:57.775Z,12.18
2023-12-16T14:11:24.244Z,11.10
2023-12-16T14:13:50.652Z,11.02
2023-12-16T14:16:17.155Z,10.63
2023-12-16T14:18:43.639Z,9.60
2023-12-16T14:21:10.150Z,9.15
2023-12-16T14:23:36.641Z,8.98
2023-12-16T14:26:03.279Z,8.80
2023-12-16T14:28:29.643Z,8.98
2023-12-16T14:30:56.432Z,8.25
2023-12-16T14:33:23.036Z,8.73
2023-12-16T14:35:49.490Z,8.48
2023-12-16T14:38:15.898Z,7.10
2023-12-16T14:40:42.664Z,7.00
2023-12-16T14:43:09.109Z,6.63
2023-12-16T14:45:35.505Z,6.57
2023-12-16T14:48:04.346Z,6.60
2023-12-16T14:50:30.843Z,6.80
2023-12-16T14:52:57.338Z,6.70
2023-12-16T14:55:24.103Z,6.78
2023-12-16T14:57:50.539Z,6.75
2023-12-16T15:00:17.032Z,6.28
2023-12-16T15:02:43.944Z,5.85
2023-12-16T15:05:10.818Z,6.13
2023-12-16T15:07:37.572Z,5.57
2023-12-16T15:10:04.277Z,5.68
2023-12-16T15:12:30.837Z,5.00
2023-12-16T15:14:57.287Z,5.97
2023-12-16T15:17:23.826Z,5.32
2023-12-16T15:19:50.270Z,5.57
2023-12-16T15:22:16.722Z,5.30
2023-12-16T15:24:43.153Z,5.75
2023-12-16T15:27:09.671Z,5.80
2023-12-16T15:29:36.121Z,5.50
2023-12-16T15:32:02.585Z,5.93
2023-12-16T15:34:30.211Z,5.82
2023-12-16T15:37:03.698Z,4.85
2023-12-16T15:39:34.876Z,5.80
2023-12-16T15:42:01.678Z,5.85
2023-12-16T15:44:28.093Z,5.68
2023-12-16T15:46:54.476Z,5.10
2023-12-16T15:49:24.616Z,5.60
2023-12-16T15:51:51.460Z,6.15
2023-12-16T15:54:17.879Z,6.03
2023-12-16T15:56:44.486Z,5.72
2023-12-16T15:59:10.970Z,5.25
2023-12-16T16:01:38.626Z,5.40
2023-12-16T16:04:05.793Z,5.68
2023-12-16T16:06:36.068Z,5.72
2023-12-16T16:09:04.389Z,5.50
2023-12-16T16:11:31.107Z,6.28
2023-12-16T16:13:57.550Z,6.43
2023-12-16T16:16:24.016Z,6.25
2023-12-16T16:18:50.517Z,6.85
2023-12-16T16:21:17.465Z,6.90
2023-12-16T16:23:44.151Z,7.70
2023-12-16T16:26:11.087Z,6.95
2023-12-16T16:28:37.556Z,6.88
2023-12-16T16:31:05.470Z,7.05
2023-12-16T16:33:32.106Z,7.63
2023-12-16T16:35:58.642Z,7.15
2023-12-16T16:38:25.151Z,8.20
2023-12-16T16:40:51.516Z,7.47
2023-12-16T16:43:17.959Z,7.97
2023-12-16T16:45:44.368Z,7.75
2023-12-16T16:48:10.935Z,8.85
2023-12-16T16:50:37.485Z,8.48
2023-12-16T16:53:03.918Z,9.05
2023-12-16T16:55:32.515Z,9.13
2023-12-16T16:57:59.137Z,9.05
2023-12-16T17:00:25.572Z,8.80
2023-12-16T17:02:52.177Z,10.43
2023-12-16T17:05:20.638Z,9.88
2023-12-16T17:07:47.538Z,12.23
2023-12-16T17:10:14.068Z,10.30
2023-12-16T17:12:40.531Z,10.38
2023-12-16T17:15:07.250Z,10.63
2023-12-16T17:17:33.801Z,10.45
2023-12-16T17:20:00.464Z,10.35
2023-12-16T17:22:28.556Z,10.60
2023-12-16T17:24:57.925Z,10.00
2023-12-16T17:27:24.443Z,9.68
2023-12-16T17:29:51.175Z,9.65
2023-12-16T17:32:17.650Z,9.73
2023-12-16T17:34:44.138Z,9.85
2023-12-16T17:37:11.882Z,10.25
2023-12-16T17:39:39.432Z,10.73
2023-12-16T17:42:06.115Z,10.85
2023-12-16T17:44:34.621Z,10.18
2023-12-16T17:47:02.184Z,10.63
2023-12-16T17:49:28.720Z,10.18
2023-12-16T17:51:56.507Z,10.23
2023-12-16T17:54:23.115Z,9.80
2023-12-16T17:56:49.942Z,10.70
2023-12-16T17:59:17.548Z,11.30
2023-12-16T18:01:47.824Z,9.65
2023-12-16T18:06:40.838Z,9.80
2023-12-16T18:09:08.097Z,11.35
2023-12-16T18:11:38.835Z,10.38
2023-12-16T18:14:06.539Z,11.20
2023-12-16T18:16:37.135Z,10.77
2023-12-16T18:19:04.174Z,10.88
2023-12-16T18:21:30.958Z,11.05
2023-12-16T18:23:57.627Z,12.07
2023-12-16T18:26:24.496Z,11.00
2023-12-16T18:28:50.916Z,11.38
2023-12-16T18:31:19.228Z,12.18
2023-12-16T18:33:46.237Z,11.23
2023-12-16T18:36:12.790Z,10.88
2023-12-16T18:38:40.188Z,10.98
2023-12-16T18:41:06.766Z,12.43
2023-12-16T18:43:33.214Z,11.07
2023-12-16T18:45:59.736Z,11.38
2023-12-16T18:48:26.298Z,11.40
2023-12-16T18:50:52.831Z,11.90
2023-12-16T18:53:19.280Z,12.30
2023-12-16T18:55:45.911Z,12.43
2023-12-16T18:58:12.332Z,12.40
2023-12-16T19:00:39.064Z,11.02
2023-12-16T19:03:05.682Z,12.32
2023-12-16T19:05:32.182Z,13.65
2023-12-16T19:07:58.595Z,11.40
2023-12-16T19:10:25.140Z,12.27
2023-12-16T19:12:51.560Z,12.13
2023-12-16T19:15:17.963Z,12.63
2023-12-16T19:17:45.038Z,11.35
2023-12-16T19:20:11.911Z,11.20
2023-12-16T19:22:38.364Z,11.93
2023-12-16T19:25:09.637Z,11.93
2023-12-16T19:27:38.004Z,12.23
2023-12-16T19:30:07.074Z,11.57
2023-12-16T19:32:34.187Z,12.52
2023-12-16T19:35:00.637Z,11.45
2023-12-16T19:37:27.191Z,11.50
2023-12-16T19:39:53.714Z,11.02
2023-12-16T19:42:20.288Z,11.05
2023-12-16T19:44:47.374Z,11.20
2023-12-16T19:47:13.925Z,11.52
2023-12-16T19:49:40.647Z,11.57
2023-12-16T19:52:10.522Z,11.60
2023-12-16T19:54:41.046Z,12.60
2023-12-16T19:59:34.986Z,13.18
2023-12-16T20:02:02.170Z,12.52
2023-12-16T20:04:28.608Z,13.43
2023-12-16T20:06:55.355Z,13.07
2023-12-16T20:09:21.920Z,13.15
2023-12-16T20:11:48.443Z,12.98
2023-12-16T20:14:14.917Z,13.68
2023-12-16T20:16:42.184Z,12.65
2023-12-16T20:19:08.840Z,12.10
2023-12-16T20:21:35.333Z,12.60
2023-12-16T20:24:01.871Z,12.40
2023-12-16T20:26:28.304Z,12.13
2023-12-16T20:28:54.799Z,11.80
2023-12-16T20:31:21.211Z,12.70
2023-12-16T20:33:48.327Z,11.25
2023-12-16T20:36:18.437Z,10.93
2023-12-16T20:39:03.786Z,11.43
2023-12-16T20:41:30.219Z,10.65
2023-12-16T20:43:56.667Z,11.20
2023-12-16T20:46:23.859Z,11.23
2023-12-16T20:48:50.709Z,11.23
2023-12-16T20:51:17.200Z,11.45
2023-12-16T20:53:44.250Z,10.45
2023-12-16T20:56:12.114Z,10.07
2023-12-16T20:58:38.606Z,10.10
2023-12-16T21:01:05.219Z,11.18
2023-12-16T21:03:31.801Z,9.90
2023-12-16T21:05:58.407Z,10.57
2023-12-16T21:08:24.829Z,10.35
2023-12-16T21:10:51.301Z,9.75
2023-12-16T21:13:19.071Z,10.73
2023-12-16T21:15:45.458Z,10.55
2023-12-16T21:18:12.093Z,9.98
2023-12-16T21:20:38.635Z,10.43
2023-12-16T21:23:05.085Z,10.32
2023-12-16T21:25:31.539Z,9.25
2023-12-16T21:27:57.915Z,10.20
2023-12-16T21:30:25.477Z,10.10
2023-12-16T21:32:52.456Z,9.30
2023-12-16T21:35:22.505Z,9.68
2023-12-16T21:37:49.047Z,9.20
2023-12-16T21:40:15.489Z,10.23
2023-12-16T21:42:41.953Z,9.45
2023-12-16T21:45:08.655Z,9.40
2023-12-16T21:47:35.242Z,9.90
2023-12-16T21:50:04.576Z,10.10
2023-12-16T21:52:31.271Z,10.68
2023-12-16T21:54:57.840Z,10.60
2023-12-16T21:57:25.798Z,10.63
2023-12-16T21:59:52.324Z,11.25
2023-12-16T22:02:18.986Z,10.73
2023-12-16T22:04:45.479Z,9.38
2023-12-16T22:07:11.897Z,9.88
2023-12-16T22:09:38.371Z,10.07
2023-12-16T22:12:04.923Z,9.98
2023-12-16T22:14:31.314Z,10.27
2023-12-16T22:16:58.055Z,10.98
2023-12-16T22:19:24.728Z,11.05
2023-12-16T22:21:51.312Z,9.68
2023-12-16T22:24:19.103Z,10.05
2023-12-16T22:26:46.632Z,10.10
2023-12-16T22:29:13.105Z,9.80
2023-12-16T22:31:41.652Z,9.93
2023-12-16T22:34:08.470Z,10.82
2023-12-16T22:36:34.967Z,11.07
2023-12-16T22:39:01.494Z,10.98
2023-12-16T22:41:27.950Z,10.82
2023-12-16T22:43:54.617Z,11.10
2023-12-16T22:46:21.018Z,10.35
2023-12-16T22:48:47.641Z,10.05
2023-12-16T22:51:14.621Z,10.25
2023-12-16T22:53:41.178Z,10.82
2023-12-16T22:56:07.866Z,11.32
2023-12-16T22:58:37.547Z,11.25
2023-12-16T23:01:09.104Z,10.25
2023-12-16T23:03:35.978Z,10.45
2023-12-16T23:06:02.491Z,11.02
2023-12-16T23:08:28.960Z,9.32
2023-12-16T23:10:55.353Z,9.43
2023-12-16T23:13:22.639Z,9.88
2023-12-16T23:15:49.193Z,9.52
2023-12-16T23:18:15.783Z,9.55
2023-12-16T23:20:42.324Z,10.20
2023-12-16T23:23:08.814Z,9.65
2023-12-16T23:25:35.262Z,9.95
2023-12-16T23:28:01.652Z,9.43
2023-12-16T23:30:28.204Z,9.07
2023-12-16T23:32:54.833Z,8.90
2023-12-16T23:35:21.381Z,9.15
2023-12-16T23:37:49.959Z,9.38
2023-12-16T23:40:16.436Z,7.82
2023-12-16T23:42:42.822Z,8.90
2023-12-16T23:45:09.520Z,8.57
2023-12-16T23:47:36.025Z,8.82
2023-12-16T23:50:02.420Z,8.77
2023-12-16T23:52:29.708Z,9.57
2023-12-16T23:54:56.596Z,8.68
2023-12-16T23:57:23.150Z,7.78
2023-12-16T23:59:49.719Z,9.20
